Time;durP1;ratioP1;P1;durP2;ratioP2;P2;SDS_P1;SDS_P2;PMS_P1;PMS_P2;Temp;Humidity;BMP_temperature;BMP_pressure;BME280_temperature;BME280_humidity;BME280_pressure;Samples;Min_cycle;Max_cycle;Signal;HPM_P1;HPM_P2
2023/08/31 00:00:10;;;;;;;10.43;4.05;;;13.10;99.90;;;;;;5087489;28;20035;-74
2023/08/31 00:02:36;;;;;;;8.23;4.28;;;13.10;99.90;;;;;;5089621;28;20027;-74
2023/08/31 00:05:03;;;;;;;8.05;4.07;;;13.10;99.90;;;;;;5086550;28;20043;-74
2023/08/31 00:07:29;;;;;;;8.70;4.38;;;13.10;99.90;;;;;;5091193;28;20028;-74
2023/08/31 00:09:55;;;;;;;9.45;4.05;;;13.10;99.90;;;;;;5089664;28;20582;-74
2023/08/31 00:12:22;;;;;;;7.70;4.03;;;13.20;99.90;;;;;;5072099;28;20032;-74
2023/08/31 00:14:49;;;;;;;7.07;4.25;;;13.10;99.90;;;;;;5089837;28;20032;-75
2023/08/31 00:17:14;;;;;;;9.00;4.43;;;13.10;99.90;;;;;;5090135;28;20036;-74
2023/08/31 00:19:40;;;;;;;7.72;4.30;;;13.10;99.90;;;;;;5088032;28;20031;-75
2023/08/31 00:22:06;;;;;;;6.78;4.07;;;13.10;99.90;;;;;;5089494;28;20396;-76
2023/08/31 00:24:31;;;;;;;10.93;4.13;;;13.20;99.90;;;;;;5089376;28;20024;-75
2023/08/31 00:26:57;;;;;;;7.43;4.18;;;13.10;99.90;;;;;;5089890;28;20028;-75
2023/08/31 00:29:25;;;;;;;7.95;4.35;;;13.00;99.90;;;;;;5089413;28;20452;-75
2023/08/31 00:31:51;;;;;;;7.68;4.50;;;13.00;99.90;;;;;;5087669;28;20044;-75
2023/08/31 00:34:17;;;;;;;9.93;4.70;;;13.10;99.90;;;;;;5087532;28;20263;-75
2023/08/31 00:36:43;;;;;;;9.98;5.30;;;13.00;99.90;;;;;;5091116;28;20529;-75
2023/08/31 00:39:10;;;;;;;9.35;5.22;;;13.00;99.90;;;;;;5088607;28;20103;-77
2023/08/31 00:41:36;;;;;;;11.02;5.05;;;13.00;99.90;;;;;;5089225;28;20036;-75
2023/08/31 00:44:04;;;;;;;13.25;4.85;;;13.00;99.90;;;;;;5089292;28;20345;-76
2023/08/31 00:46:31;;;;;;;15.20;4.90;;;12.90;99.90;;;;;;5071247;28;20176;-75
2023/08/31 00:48:57;;;;;;;12.88;4.57;;;12.90;99.90;;;;;;5087195;28;20444;-76
2023/08/31 00:51:24;;;;;;;10.77;5.15;;;12.90;99.90;;;;;;5072267;28;20035;-75
2023/08/31 00:53:54;;;;;;;10.82;5.32;;;12.90;99.90;;;;;;5089833;28;20040;-75
2023/08/31 00:56:20;;;;;;;8.77;4.60;;;12.90;99.90;;;;;;5089072;28;20103;-75
2023/08/31 00:58:46;;;;;;;14.10;5.50;;;12.90;99.90;;;;;;5087312;28;20115;-76
2023/08/31 01:01:35;;;;;;;7.90;4.72;;;12.90;99.90;;;;;;5088911;28;20077;-75
2023/08/31 01:04:24;;;;;;;10.20;4.60;;;12.90;99.90;;;;;;5070080;28;20398;-74
2023/08/31 01:07:30;;;;;;;10.40;5.70;;;12.90;99.90;;;;;;5087769;28;20032;-74
2023/08/31 01:10:22;;;;;;;10.48;5.13;;;12.90;99.90;;;;;;5083254;28;20510;-76
2023/08/31 01:12:58;;;;;;;11.38;4.65;;;12.80;99.90;;;;;;5076769;28;20146;-76
2023/08/31 01:15:25;;;;;;;15.05;5.28;;;12.80;99.90;;;;;;5085951;28;20066;-75
2023/08/31 01:17:54;;;;;;;12.43;4.40;;;12.70;99.90;;;;;;5083818;28;20042;-75
2023/08/31 01:20:34;;;;;;;10.73;4.93;;;12.70;99.90;;;;;;5084431;28;20032;-75
2023/08/31 01:23:06;;;;;;;8.00;4.22;;;12.70;99.90;;;;;;5084275;28;20031;-75
2023/08/31 01:25:33;;;;;;;9.27;4.60;;;12.60;99.90;;;;;;5081533;28;20028;-75
2023/08/31 01:27:59;;;;;;;10.15;4.95;;;12.60;99.90;;;;;;5088068;28;20579;-75
2023/08/31 01:30:29;;;;;;;10.27;5.25;;;12.50;99.90;;;;;;5083710;28;20051;-75
2023/08/31 01:32:55;;;;;;;11.35;5.18;;;12.50;99.90;;;;;;5087815;28;20047;-75
2023/08/31 01:35:21;;;;;;;10.68;5.13;;;12.40;99.90;;;;;;5088445;28;20013;-75
2023/08/31 01:37:52;;;;;;;18.00;4.47;;;12.40;99.90;;;;;;5089868;28;20077;-75
2023/08/31 01:40:28;;;;;;;11.45;4.90;;;12.40;99.90;;;;;;5086862;28;20457;-75
2023/08/31 01:42:54;;;;;;;10.30;4.78;;;12.40;99.90;;;;;;5064367;28;20039;-75
2023/08/31 01:45:22;;;;;;;8.32;4.75;;;12.30;99.90;;;;;;5087364;28;20036;-75
2023/08/31 01:47:48;;;;;;;8.68;4.97;;;12.30;99.90;;;;;;5088885;28;20052;-75
2023/08/31 01:50:14;;;;;;;8.52;4.32;;;12.30;99.90;;;;;;5087485;28;20028;-76
2023/08/31 01:52:40;;;;;;;8.88;4.57;;;12.20;99.90;;;;;;5089736;28;20078;-75
2023/08/31 01:55:06;;;;;;;9.32;4.75;;;12.20;99.90;;;;;;5086428;28;20070;-75
2023/08/31 01:57:33;;;;;;;11.50;4.93;;;12.20;99.90;;;;;;5088466;28;20036;-75
2023/08/31 01:59:59;;;;;;;9.75;4.68;;;12.20;99.90;;;;;;5087784;28;20035;-75
2023/08/31 02:02:25;;;;;;;7.65;4.55;;;12.20;99.90;;;;;;5082248;28;20039;-75
2023/08/31 02:04:51;;;;;;;8.40;4.47;;;12.20;99.90;;;;;;5075327;28;20032;-75
2023/08/31 02:07:17;;;;;;;11.52;4.90;;;12.20;99.90;;;;;;5085893;28;20031;-75
2023/08/31 02:09:43;;;;;;;10.65;5.03;;;12.20;99.90;;;;;;5087269;28;20067;-75
2023/08/31 02:12:09;;;;;;;8.48;4.68;;;12.30;99.90;;;;;;5088437;28;20074;-75
2023/08/31 02:14:35;;;;;;;9.80;5.20;;;12.20;99.90;;;;;;5089315;28;20032;-75
2023/08/31 02:17:01;;;;;;;16.92;6.07;;;12.20;99.90;;;;;;5084750;28;20036;-75
2023/08/31 02:19:26;;;;;;;14.07;6.22;;;12.20;99.90;;;;;;5086706;28;20042;-75
2023/08/31 02:21:52;;;;;;;9.07;5.50;;;12.20;99.90;;;;;;5088191;28;20040;-78
2023/08/31 02:24:17;;;;;;;11.65;5.70;;;12.20;99.90;;;;;;5068543;28;20031;-75
2023/08/31 02:26:43;;;;;;;11.15;5.93;;;12.10;99.90;;;;;;5065924;28;20035;-75
2023/08/31 02:29:10;;;;;;;10.60;5.38;;;12.20;99.90;;;;;;5086512;28;20111;-75
2023/08/31 02:31:37;;;;;;;10.15;5.53;;;12.20;99.90;;;;;;5087758;28;20037;-75
2023/08/31 02:34:03;;;;;;;10.40;5.72;;;12.20;99.90;;;;;;5087725;28;20039;-75
2023/08/31 02:36:28;;;;;;;10.40;5.28;;;12.20;99.90;;;;;;5087761;28;20496;-76
2023/08/31 02:38:54;;;;;;;10.18;5.55;;;12.20;99.90;;;;;;5087718;28;20032;-75
2023/08/31 02:41:19;;;;;;;12.82;5.95;;;12.20;99.90;;;;;;5087630;28;20038;-75
2023/08/31 02:43:45;;;;;;;15.10;6.93;;;12.20;99.90;;;;;;5088981;28;20073;-75
2023/08/31 02:46:11;;;;;;;16.05;6.20;;;12.20;99.90;;;;;;5085326;28;20028;-75
2023/08/31 02:48:38;;;;;;;14.80;6.32;;;12.20;99.90;;;;;;5087985;28;20472;-75
2023/08/31 02:51:04;;;;;;;13.23;6.22;;;12.20;99.90;;;;;;5085564;28;20050;-75
2023/08/31 02:53:30;;;;;;;11.68;5.78;;;12.10;99.90;;;;;;5086042;28;20048;-74
2023/08/31 02:55:57;;;;;;;10.52;5.78;;;12.10;99.90;;;;;;5087260;28;20481;-75
2023/08/31 02:58:22;;;;;;;10.50;5.32;;;12.20;99.90;;;;;;5084496;28;20028;-75
2023/08/31 03:00:48;;;;;;;10.95;6.15;;;12.20;99.90;;;;;;5085607;28;20061;-75
2023/08/31 03:03:16;;;;;;;10.98;5.80;;;12.20;99.90;;;;;;5087835;28;20028;-75
2023/08/31 03:05:41;;;;;;;11.82;5.68;;;12.20;99.90;;;;;;5087682;28;20464;-75
2023/08/31 03:08:07;;;;;;;9.35;6.03;;;12.20;99.90;;;;;;5069560;28;20070;-75
2023/08/31 03:10:33;;;;;;;11.77;6.35;;;12.20;99.90;;;;;;5085985;28;20063;-75
2023/08/31 03:12:58;;;;;;;10.95;5.80;;;12.20;99.90;;;;;;5088740;28;20040;-74
2023/08/31 03:15:24;;;;;;;11.38;5.90;;;12.20;99.90;;;;;;5086324;28;20064;-75
2023/08/31 03:17:49;;;;;;;11.20;6.05;;;12.10;99.90;;;;;;5086919;28;20035;-75
2023/08/31 03:20:15;;;;;;;11.40;5.55;;;12.10;99.90;;;;;;5085818;28;20469;-76
2023/08/31 03:22:41;;;;;;;14.35;6.00;;;12.10;99.90;;;;;;5086564;28;20028;-75
2023/08/31 03:25:07;;;;;;;10.73;5.97;;;12.10;99.90;;;;;;5087628;28;20035;-75
2023/08/31 03:27:32;;;;;;;12.07;5.95;;;12.00;99.90;;;;;;5085459;28;20093;-75
2023/08/31 03:29:58;;;;;;;11.95;5.20;;;12.00;99.90;;;;;;5087072;28;20032;-75
2023/08/31 03:32:24;;;;;;;9.63;5.18;;;12.00;99.90;;;;;;5086331;28;20483;-75
2023/08/31 03:34:50;;;;;;;12.57;5.18;;;12.00;99.90;;;;;;5087718;28;20083;-75
2023/08/31 03:37:16;;;;;;;17.27;5.18;;;11.90;99.90;;;;;;5090030;28;20063;-75
2023/08/31 03:39:42;;;;;;;14.13;5.90;;;11.90;99.90;;;;;;5090822;28;20059;-75
2023/08/31 03:42:08;;;;;;;10.68;5.88;;;11.90;99.90;;;;;;5091829;28;20147;-76
2023/08/31 03:44:35;;;;;;;15.02;5.22;;;11.80;99.90;;;;;;5090857;28;20530;-75
2023/08/31 03:47:01;;;;;;;12.50;5.35;;;11.90;99.90;;;;;;5091752;28;20048;-76
2023/08/31 03:49:27;;;;;;;11.73;5.30;;;11.90;99.90;;;;;;5090543;28;20085;-76
2023/08/31 03:51:53;;;;;;;14.00;5.75;;;11.80;99.90;;;;;;5091255;28;20032;-76
2023/08/31 03:54:19;;;;;;;12.57;5.95;;;11.80;99.90;;;;;;5091084;28;20032;-75
2023/08/31 03:56:45;;;;;;;11.00;5.97;;;11.90;99.90;;;;;;5091980;28;20039;-75
2023/08/31 03:59:13;;;;;;;16.35;6.10;;;11.80;99.90;;;;;;5090557;28;20040;-74
2023/08/31 04:01:38;;;;;;;10.20;5.75;;;11.80;99.90;;;;;;5091966;28;20120;-76
2023/08/31 04:04:04;;;;;;;12.50;5.93;;;11.80;99.90;;;;;;5090015;28;20107;-75
2023/08/31 04:06:30;;;;;;;13.27;6.20;;;11.80;99.90;;;;;;5088043;28;20103;-75
2023/08/31 04:08:56;;;;;;;9.20;5.43;;;11.90;99.90;;;;;;5091700;28;20328;-75
2023/08/31 04:11:22;;;;;;;12.07;5.10;;;11.90;99.90;;;;;;5087443;28;20055;-76
2023/08/31 04:13:48;;;;;;;12.43;5.47;;;11.90;99.90;;;;;;5091691;28;20032;-76
2023/08/31 04:16:13;;;;;;;14.00;5.78;;;12.00;99.90;;;;;;5090705;28;20075;-75
2023/08/31 04:18:39;;;;;;;10.20;5.80;;;12.00;99.90;;;;;;5091377;28;20111;-75
2023/08/31 04:21:06;;;;;;;10.40;5.65;;;12.10;99.90;;;;;;5088130;28;20028;-76
2023/08/31 04:23:32;;;;;;;11.93;6.00;;;12.00;99.90;;;;;;5090531;28;20240;-75
2023/08/31 04:25:58;;;;;;;13.27;5.97;;;12.00;99.90;;;;;;5089187;28;20024;-75
2023/08/31 04:28:24;;;;;;;11.65;6.20;;;12.10;99.90;;;;;;5090337;28;20089;-75
2023/08/31 04:30:50;;;;;;;10.13;5.63;;;12.10;99.90;;;;;;5088618;28;20028;-75
2023/08/31 04:33:16;;;;;;;9.73;5.10;;;12.00;99.90;;;;;;5082986;28;20043;-76
2023/08/31 04:35:42;;;;;;;10.70;5.10;;;12.00;99.90;;;;;;5082627;28;20036;-75
2023/08/31 04:38:07;;;;;;;11.73;5.30;;;11.90;99.90;;;;;;5082728;28;20032;-75
2023/08/31 04:40:33;;;;;;;11.60;5.57;;;11.90;99.90;;;;;;5086418;28;20031;-75
2023/08/31 04:42:59;;;;;;;10.98;5.25;;;11.90;99.90;;;;;;5085281;28;20047;-75
2023/08/31 04:45:24;;;;;;;10.52;5.38;;;11.90;99.90;;;;;;5088403;28;20032;-74
2023/08/31 04:47:51;;;;;;;15.55;5.72;;;11.90;99.90;;;;;;5087212;28;20052;-75
2023/08/31 04:50:17;;;;;;;11.95;6.13;;;11.90;99.90;;;;;;5078117;28;20489;-75
2023/08/31 04:52:43;;;;;;;11.43;5.82;;;11.90;99.90;;;;;;5089098;28;20036;-75
2023/08/31 04:55:08;;;;;;;13.63;6.18;;;11.90;99.90;;;;;;5087844;28;20036;-75
2023/08/31 04:57:34;;;;;;;13.80;6.30;;;11.90;99.90;;;;;;5092593;28;20138;-75
2023/08/31 05:00:00;;;;;;;9.63;5.22;;;11.90;99.90;;;;;;5089183;28;20644;-76
2023/08/31 05:02:27;;;;;;;14.55;6.60;;;11.90;99.90;;;;;;5089371;28;20364;-76
2023/08/31 05:04:53;;;;;;;10.85;5.97;;;11.90;99.90;;;;;;5086206;28;20051;-75
2023/08/31 05:07:18;;;;;;;12.18;5.97;;;11.80;99.90;;;;;;5088191;28;20054;-75
2023/08/31 05:09:44;;;;;;;12.35;6.05;;;11.80;99.90;;;;;;5088353;28;20468;-75
2023/08/31 05:12:09;;;;;;;9.18;5.78;;;11.80;99.90;;;;;;5088864;28;20693;-76
2023/08/31 05:14:37;;;;;;;13.40;5.80;;;11.80;99.90;;;;;;5084583;28;20031;-75
2023/08/31 05:17:04;;;;;;;11.90;5.55;;;11.70;99.90;;;;;;5078062;28;20035;-74
2023/08/31 05:19:30;;;;;;;11.43;6.32;;;11.80;99.90;;;;;;5085204;28;20078;-75
2023/08/31 05:21:56;;;;;;;11.77;6.03;;;11.90;99.90;;;;;;5087956;28;20051;-75
2023/08/31 05:24:21;;;;;;;14.38;6.63;;;11.90;99.90;;;;;;5078782;28;20402;-75
2023/08/31 05:26:47;;;;;;;12.13;6.47;;;11.90;99.90;;;;;;5087689;28;20059;-75
2023/08/31 05:29:12;;;;;;;11.63;7.20;;;11.90;99.90;;;;;;5085946;28;20043;-76
2023/08/31 05:31:38;;;;;;;13.75;6.75;;;12.00;99.90;;;;;;5087370;28;20086;-75
2023/08/31 05:34:04;;;;;;;12.70;6.80;;;12.00;99.90;;;;;;5086783;28;20936;-74
2023/08/31 05:36:29;;;;;;;13.73;7.45;;;12.10;99.90;;;;;;5067951;28;20082;-75
2023/08/31 05:38:55;;;;;;;20.52;7.25;;;12.20;99.90;;;;;;5078832;28;20020;-75
2023/08/31 05:41:20;;;;;;;16.08;7.53;;;12.20;99.90;;;;;;5081933;28;20036;-74
2023/08/31 05:43:46;;;;;;;12.85;6.10;;;12.30;99.90;;;;;;5089449;28;20055;-74
2023/08/31 05:46:12;;;;;;;12.02;6.90;;;12.30;99.90;;;;;;5087676;28;20024;-76
2023/08/31 05:48:37;;;;;;;17.80;6.45;;;12.30;99.90;;;;;;5086093;28;20129;-79
2023/08/31 05:51:03;;;;;;;11.25;6.43;;;12.40;99.90;;;;;;5084568;28;20036;-75
2023/08/31 05:53:33;;;;;;;13.52;6.78;;;12.40;99.90;;;;;;5088746;28;20491;-76
2023/08/31 05:56:06;;;;;;;12.75;6.45;;;12.40;99.90;;;;;;5084630;28;21619;-75
2023/08/31 05:58:34;;;;;;;16.00;6.38;;;12.50;99.90;;;;;;5087997;28;20040;-75
2023/08/31 06:01:03;;;;;;;11.85;5.65;;;12.60;99.90;;;;;;5085850;28;20040;-74
2023/08/31 06:03:29;;;;;;;9.65;5.57;;;12.60;99.90;;;;;;5078908;28;20036;-76
2023/08/31 06:05:56;;;;;;;12.50;5.60;;;12.50;99.90;;;;;;5084030;28;20024;-75
2023/08/31 06:08:22;;;;;;;12.77;6.13;;;12.50;99.90;;;;;;5077898;28;20107;-74
2023/08/31 06:10:48;;;;;;;12.65;6.30;;;12.50;99.90;;;;;;5077250;28;20111;-73
2023/08/31 06:13:13;;;;;;;12.80;6.28;;;12.50;99.90;;;;;;5089088;28;20085;-76
2023/08/31 06:15:39;;;;;;;9.40;5.90;;;12.60;99.90;;;;;;5087329;28;20020;-76
2023/08/31 06:18:05;;;;;;;12.45;5.40;;;12.60;99.90;;;;;;5068793;28;20051;-74
2023/08/31 06:20:31;;;;;;;11.63;5.68;;;12.60;99.90;;;;;;5079730;28;20463;-75
2023/08/31 06:22:57;;;;;;;9.48;5.68;;;12.60;99.90;;;;;;5076207;28;20035;-76
2023/08/31 06:25:22;;;;;;;12.00;5.40;;;12.60;99.90;;;;;;5088235;28;20622;-75
2023/08/31 06:27:48;;;;;;;14.45;5.72;;;12.60;99.90;;;;;;5087907;28;20032;-76
2023/08/31 06:30:16;;;;;;;12.23;5.55;;;12.70;99.90;;;;;;5089015;28;20057;-75
2023/08/31 06:32:47;;;;;;;13.77;5.15;;;12.80;99.90;;;;;;5087166;28;20062;-75
2023/08/31 06:35:15;;;;;;;10.70;5.15;;;12.80;99.90;;;;;;5077526;28;20093;-75
2023/08/31 06:37:41;;;;;;;17.98;6.32;;;12.80;99.90;;;;;;5084567;28;20043;-75
2023/08/31 06:40:08;;;;;;;12.63;5.15;;;12.90;99.90;;;;;;5086417;28;20027;-74
2023/08/31 06:42:37;;;;;;;12.68;5.63;;;13.10;99.90;;;;;;5087743;28;20575;-74
2023/08/31 06:45:07;;;;;;;11.57;5.53;;;13.00;99.90;;;;;;5088848;28;20034;-75
2023/08/31 06:47:33;;;;;;;10.68;5.40;;;13.20;99.90;;;;;;5087614;28;20056;-74
2023/08/31 06:49:59;;;;;;;9.77;5.18;;;13.20;99.90;;;;;;5066829;28;20036;-74
2023/08/31 06:52:26;;;;;;;10.65;4.93;;;13.20;99.90;;;;;;5087269;28;20396;-74
2023/08/31 06:54:55;;;;;;;9.40;5.43;;;13.20;99.90;;;;;;5087622;28;20040;-74
2023/08/31 06:57:21;;;;;;;12.23;5.68;;;13.40;99.90;;;;;;5088241;28;20024;-74
2023/08/31 06:59:47;;;;;;;11.02;4.95;;;13.40;99.90;;;;;;5087231;28;20020;-75
2023/08/31 07:02:13;;;;;;;8.77;4.78;;;13.30;99.90;;;;;;5085159;28;20752;-75
2023/08/31 07:04:38;;;;;;;9.85;5.20;;;13.30;99.90;;;;;;5083875;28;20050;-74
2023/08/31 07:07:05;;;;;;;9.88;5.22;;;13.30;99.90;;;;;;5085701;28;20388;-75
2023/08/31 07:09:31;;;;;;;9.35;4.22;;;13.30;99.90;;;;;;5083397;28;20020;-74
2023/08/31 07:11:58;;;;;;;9.73;4.78;;;13.40;99.90;;;;;;5088312;28;20031;-75
2023/08/31 07:14:24;;;;;;;10.00;4.65;;;13.50;99.90;;;;;;5076821;28;20042;-74
2023/08/31 07:16:50;;;;;;;12.02;4.40;;;13.50;99.90;;;;;;5086753;28;20395;-73
2023/08/31 07:19:15;;;;;;;13.35;5.00;;;13.50;99.90;;;;;;5087133;28;20051;-73
2023/08/31 07:21:41;;;;;;;9.90;4.80;;;13.60;99.90;;;;;;5087346;28;20111;-74
2023/08/31 07:24:07;;;;;;;8.07;4.38;;;13.60;99.90;;;;;;5088075;28;20100;-73
2023/08/31 07:26:34;;;;;;;13.73;4.82;;;13.60;99.90;;;;;;5086883;28;20554;-72
2023/08/31 07:29:01;;;;;;;7.80;4.38;;;13.70;99.90;;;;;;5088349;28;20071;-74
2023/08/31 07:31:27;;;;;;;13.73;4.93;;;13.90;99.90;;;;;;5083136;28;20060;-73
2023/08/31 07:33:52;;;;;;;13.15;5.35;;;13.90;99.90;;;;;;5087548;28;20071;-74
2023/08/31 07:36:18;;;;;;;8.80;4.40;;;14.00;99.90;;;;;;5087484;28;20039;-72
2023/08/31 07:38:44;;;;;;;10.52;4.70;;;14.30;99.90;;;;;;5080680;28;20032;-72
2023/08/31 07:41:09;;;;;;;9.07;4.22;;;14.30;99.90;;;;;;5087785;28;20035;-73
2023/08/31 07:43:35;;;;;;;9.50;4.18;;;14.30;99.90;;;;;;5081516;28;20036;-72
2023/08/31 07:46:00;;;;;;;9.88;3.70;;;14.50;99.90;;;;;;5088078;28;20033;-74
2023/08/31 07:48:26;;;;;;;12.23;3.95;;;14.40;99.90;;;;;;5084819;28;20060;-73
2023/08/31 07:50:52;;;;;;;8.05;3.25;;;14.40;99.90;;;;;;5084292;28;20032;-76
2023/08/31 07:53:17;;;;;;;5.82;2.92;;;14.50;99.90;;;;;;5079929;28;20537;-73
2023/08/31 07:55:51;;;;;;;10.10;3.40;;;14.60;99.90;;;;;;5085898;28;20039;-74
2023/08/31 07:58:17;;;;;;;8.50;3.10;;;14.60;99.90;;;;;;5087857;28;20063;-74
2023/08/31 08:00:42;;;;;;;8.65;3.40;;;14.60;99.90;;;;;;5086801;28;20166;-73
2023/08/31 08:03:08;;;;;;;8.10;3.60;;;14.50;99.90;;;;;;5086306;28;20043;-73
2023/08/31 08:05:34;;;;;;;8.95;3.60;;;14.70;99.90;;;;;;5086982;28;20024;-73
2023/08/31 08:07:59;;;;;;;6.38;3.00;;;14.80;99.90;;;;;;5087869;28;20032;-73
2023/08/31 08:10:25;;;;;;;5.90;3.00;;;14.90;99.90;;;;;;5086928;28;20551;-73
2023/08/31 08:12:51;;;;;;;8.65;2.85;;;14.80;99.90;;;;;;5085192;28;20693;-73
2023/08/31 08:15:16;;;;;;;6.22;2.42;;;14.60;99.90;;;;;;5087606;28;20028;-73
2023/08/31 08:17:42;;;;;;;8.05;2.38;;;14.70;99.90;;;;;;5084975;28;20043;-73
2023/08/31 08:20:09;;;;;;;6.65;2.55;;;14.80;99.90;;;;;;5087726;28;20416;-72
2023/08/31 08:22:35;;;;;;;9.10;2.40;;;14.80;99.90;;;;;;5090140;28;20023;-73
2023/08/31 08:25:02;;;;;;;6.80;2.40;;;14.80;99.90;;;;;;5091331;28;20038;-73
2023/08/31 08:27:28;;;;;;;8.85;2.53;;;14.70;99.90;;;;;;5089119;28;20035;-74
2023/08/31 08:29:53;;;;;;;8.32;2.85;;;14.60;99.90;;;;;;5090572;28;20391;-73
2023/08/31 08:32:19;;;;;;;9.95;2.72;;;14.60;99.90;;;;;;5091183;28;20032;-73
2023/08/31 08:34:45;;;;;;;9.18;2.75;;;14.70;99.90;;;;;;5089494;28;20015;-73
2023/08/31 08:37:10;;;;;;;8.02;2.72;;;14.80;99.90;;;;;;5090330;28;20380;-73
2023/08/31 08:39:36;;;;;;;7.30;2.72;;;15.00;99.90;;;;;;5088708;28;20036;-73
2023/08/31 08:42:05;;;;;;;8.23;3.28;;;15.00;99.90;;;;;;5071595;28;20036;-73
2023/08/31 08:44:33;;;;;;;10.18;2.75;;;15.00;99.90;;;;;;5089701;28;20032;-74
2023/08/31 08:47:00;;;;;;;8.73;2.67;;;14.90;99.90;;;;;;5091047;28;20048;-73
2023/08/31 08:49:28;;;;;;;8.40;3.45;;;14.80;99.90;;;;;;5090758;28;20044;-75
2023/08/31 08:51:54;;;;;;;11.00;3.63;;;14.90;99.90;;;;;;5089159;28;20043;-73
2023/08/31 08:54:22;;;;;;;9.02;3.30;;;15.00;99.90;;;;;;5090915;28;20032;-73
2023/08/31 08:56:48;;;;;;;6.65;3.13;;;15.10;99.90;;;;;;5090181;28;20016;-73
2023/08/31 08:59:14;;;;;;;5.55;2.88;;;15.00;99.90;;;;;;5089268;28;20047;-74
2023/08/31 09:01:40;;;;;;;6.70;2.70;;;14.90;99.90;;;;;;5090171;28;20495;-73
2023/08/31 09:04:06;;;;;;;10.60;2.90;;;15.00;99.90;;;;;;5089086;28;20143;-74
2023/08/31 09:06:32;;;;;;;8.30;2.83;;;15.20;99.90;;;;;;5088912;28;20492;-75
2023/08/31 09:08:58;;;;;;;8.35;3.42;;;15.20;99.90;;;;;;5089171;28;20024;-73
2023/08/31 09:11:25;;;;;;;8.00;2.90;;;15.20;99.90;;;;;;5087684;28;20106;-74
2023/08/31 09:13:51;;;;;;;7.90;3.13;;;15.30;99.90;;;;;;5088377;28;20043;-74
2023/08/31 09:16:28;;;;;;;8.90;2.78;;;15.30;99.90;;;;;;5088646;28;20032;-74
2023/08/31 09:18:54;;;;;;;9.25;2.92;;;15.40;99.90;;;;;;5090513;28;20032;-73
2023/08/31 09:21:21;;;;;;;8.95;3.20;;;15.60;99.90;;;;;;5090390;28;20043;-74
2023/08/31 09:23:57;;;;;;;9.55;2.70;;;15.90;99.90;;;;;;5089790;28;20016;-73
2023/08/31 09:26:23;;;;;;;12.18;2.95;;;16.20;99.90;;;;;;5089384;28;20031;-73
2023/08/31 09:28:49;;;;;;;9.07;2.70;;;16.30;99.90;;;;;;5087471;28;20119;-75
2023/08/31 09:31:15;;;;;;;8.98;2.70;;;16.10;99.90;;;;;;5089936;28;20047;-73
2023/08/31 09:33:52;;;;;;;9.88;2.67;;;16.00;99.90;;;;;;5086965;28;20036;-76
2023/08/31 09:36:20;;;;;;;12.43;2.90;;;15.90;99.90;;;;;;5089569;28;20418;-74
2023/08/31 09:38:45;;;;;;;9.45;2.80;;;15.60;99.90;;;;;;5087936;28;20710;-74
2023/08/31 09:41:11;;;;;;;6.35;2.75;;;15.50;99.90;;;;;;5088209;28;20032;-73
2023/08/31 09:43:37;;;;;;;5.75;2.83;;;15.40;99.90;;;;;;5087365;28;20051;-73
2023/08/31 09:46:04;;;;;;;5.82;2.72;;;15.30;99.90;;;;;;5089951;28;20036;-72
2023/08/31 09:48:30;;;;;;;8.43;2.60;;;15.20;99.90;;;;;;5089495;28;20050;-73
2023/08/31 09:50:57;;;;;;;7.85;2.65;;;15.00;99.90;;;;;;5089869;28;20039;-74
2023/08/31 09:53:28;;;;;;;9.13;2.90;;;14.90;99.90;;;;;;5090149;28;20035;-72
2023/08/31 09:55:56;;;;;;;7.55;2.90;;;14.80;99.90;;;;;;5089791;28;20167;-72
2023/08/31 09:58:21;;;;;;;4.72;2.42;;;14.80;99.90;;;;;;5088420;28;20044;-73
2023/08/31 10:00:49;;;;;;;9.50;2.50;;;14.80;99.90;;;;;;5089038;28;20878;-73
2023/08/31 10:03:15;;;;;;;4.97;2.20;;;14.70;99.90;;;;;;5089130;28;20028;-74
2023/08/31 10:05:44;;;;;;;9.20;2.50;;;14.60;99.90;;;;;;5089017;28;20031;-73
2023/08/31 10:08:11;;;;;;;7.80;3.13;;;14.60;99.90;;;;;;5089701;28;20050;-73
2023/08/31 10:10:37;;;;;;;6.72;2.50;;;14.60;99.90;;;;;;5086021;28;20121;-73
2023/08/31 10:13:05;;;;;;;11.35;2.70;;;14.60;99.90;;;;;;5089417;28;20032;-73
2023/08/31 10:15:35;;;;;;;11.82;2.50;;;14.70;99.90;;;;;;5088387;28;20032;-73
2023/08/31 10:18:02;;;;;;;6.97;2.60;;;14.90;99.90;;;;;;5089519;28;20040;-73
2023/08/31 10:20:31;;;;;;;10.52;3.08;;;15.20;99.90;;;;;;5087919;28;20048;-73
2023/08/31 10:23:03;;;;;;;9.60;2.75;;;15.90;99.90;;;;;;5081353;28;20036;-73
2023/08/31 10:25:54;;;;;;;8.55;2.75;;;16.70;99.90;;;;;;5072797;28;20123;-73
2023/08/31 10:28:24;;;;;;;9.50;2.70;;;17.40;99.90;;;;;;5087839;28;20510;-72
2023/08/31 10:31:04;;;;;;;9.52;2.78;;;17.40;99.90;;;;;;5087969;28;20040;-73
2023/08/31 10:33:55;;;;;;;5.50;2.67;;;16.90;99.90;;;;;;5086557;28;20088;-74
2023/08/31 10:36:20;;;;;;;6.65;2.80;;;16.30;99.90;;;;;;5087465;28;20028;-72
2023/08/31 10:39:00;;;;;;;8.73;3.00;;;16.20;99.90;;;;;;5085681;28;20040;-74
2023/08/31 10:41:34;;;;;;;9.77;2.23;;;16.00;99.90;;;;;;5088241;28;20036;-74
2023/08/31 10:44:00;;;;;;;8.20;2.70;;;15.80;99.90;;;;;;5087489;28;20044;-73
2023/08/31 10:46:38;;;;;;;9.25;3.17;;;15.80;99.90;;;;;;5071654;28;20055;-73
2023/08/31 10:49:14;;;;;;;5.25;2.47;;;15.70;99.90;;;;;;5071289;28;20123;-74
2023/08/31 10:51:45;;;;;;;14.90;3.05;;;15.70;99.90;;;;;;5085558;28;20369;-74
2023/08/31 10:54:15;;;;;;;7.55;3.00;;;15.60;99.90;;;;;;5088073;28;20039;-73
2023/08/31 10:57:07;;;;;;;8.63;2.65;;;15.50;99.90;;;;;;5086238;28;20031;-73
2023/08/31 10:59:52;;;;;;;5.90;2.65;;;15.50;99.90;;;;;;5087475;28;20549;-75
2023/08/31 11:02:47;;;;;;;6.57;2.42;;;15.60;99.90;;;;;;5088311;28;20085;-74
2023/08/31 11:05:14;;;;;;;7.50;3.17;;;15.80;99.90;;;;;;5085938;28;20024;-72
2023/08/31 11:07:42;;;;;;;9.80;2.55;;;16.60;99.90;;;;;;5085686;28;20451;-73
2023/08/31 11:10:23;;;;;;;13.13;3.10;;;16.60;99.90;;;;;;5085488;28;20114;-73
2023/08/31 11:12:50;;;;;;;8.13;2.58;;;16.20;99.90;;;;;;5075312;28;20028;-73
2023/08/31 11:15:18;;;;;;;5.20;2.40;;;16.30;99.90;;;;;;5087049;28;20047;-72
2023/08/31 11:17:46;;;;;;;5.57;2.50;;;16.80;99.90;;;;;;5088044;28;20032;-73
2023/08/31 11:20:16;;;;;;;7.40;2.40;;;17.30;99.90;;;;;;5087796;28;20028;-72
2023/08/31 11:22:43;;;;;;;9.38;3.13;;;17.60;99.90;;;;;;5085968;28;20413;-73
2023/08/31 11:25:11;;;;;;;5.30;2.40;;;18.00;99.90;;;;;;5087306;28;20067;-73
2023/08/31 11:27:37;;;;;;;7.03;2.33;;;18.50;99.90;;;;;;5086814;28;20092;-74
2023/08/31 11:30:10;;;;;;;8.85;2.28;;;18.70;99.90;;;;;;5086606;28;20453;-74
2023/08/31 11:32:36;;;;;;;10.88;2.17;;;19.20;99.90;;;;;;5061918;28;20115;-74
2023/08/31 11:35:03;;;;;;;5.25;1.95;;;19.10;99.90;;;;;;5085998;28;20588;-72
2023/08/31 11:37:29;;;;;;;7.75;2.30;;;18.00;99.90;;;;;;5068571;28;20077;-74
2023/08/31 11:39:55;;;;;;;8.05;2.38;;;17.50;99.90;;;;;;5084869;28;20169;-73
2023/08/31 11:42:21;;;;;;;6.32;2.30;;;17.50;99.90;;;;;;5087504;28;20028;-75
2023/08/31 11:44:49;;;;;;;5.85;2.28;;;17.30;99.90;;;;;;5085775;28;20036;-73
2023/08/31 11:47:16;;;;;;;6.13;2.28;;;17.00;99.90;;;;;;5086946;28;20458;-72
2023/08/31 11:49:42;;;;;;;7.45;2.20;;;17.00;99.90;;;;;;5067057;28;20395;-73
2023/08/31 11:52:11;;;;;;;9.57;2.40;;;17.00;99.90;;;;;;5086638;28;20202;-73
2023/08/31 11:54:38;;;;;;;2.67;1.88;;;16.90;99.90;;;;;;5086882;28;20504;-74
2023/08/31 11:57:08;;;;;;;7.15;2.20;;;16.90;99.90;;;;;;5089990;28;20770;-72
2023/08/31 11:59:36;;;;;;;8.00;2.17;;;16.90;99.90;;;;;;5092080;28;20047;-71
2023/08/31 12:02:05;;;;;;;5.65;2.25;;;17.50;99.90;;;;;;5088451;28;20032;-72
2023/08/31 12:04:30;;;;;;;7.22;2.25;;;17.80;99.90;;;;;;5090662;28;20170;-73
2023/08/31 12:07:04;;;;;;;7.20;2.30;;;17.50;99.90;;;;;;5089261;28;20443;-72
2023/08/31 12:09:30;;;;;;;10.02;2.17;;;17.90;99.90;;;;;;5091221;28;20174;-73
2023/08/31 12:11:56;;;;;;;6.30;2.35;;;18.40;99.90;;;;;;5088259;28;20037;-73
2023/08/31 12:14:23;;;;;;;6.20;2.08;;;18.90;99.90;;;;;;5088675;28;20024;-71
2023/08/31 12:16:50;;;;;;;6.88;2.40;;;19.40;99.90;;;;;;5090104;28;20044;-72
2023/08/31 12:19:16;;;;;;;7.15;2.35;;;19.20;99.90;;;;;;5090919;28;20090;-72
2023/08/31 12:21:44;;;;;;;4.60;2.22;;;18.50;99.90;;;;;;5088691;28;20468;-75
2023/08/31 12:24:10;;;;;;;6.47;2.30;;;17.80;99.90;;;;;;5088121;28;20532;-71
2023/08/31 12:26:36;;;;;;;11.30;2.25;;;17.40;99.90;;;;;;5090538;28;20071;-70
2023/08/31 12:29:06;;;;;;;5.22;2.17;;;17.30;99.90;;;;;;5090585;28;20043;-72
2023/08/31 12:31:32;;;;;;;7.95;2.30;;;17.20;99.90;;;;;;5090007;28;20399;-72
2023/08/31 12:33:59;;;;;;;5.70;2.30;;;17.30;99.90;;;;;;5088594;28;20538;-72
2023/08/31 12:36:25;;;;;;;7.70;2.28;;;17.40;99.90;;;;;;5091262;28;20798;-72
2023/08/31 12:38:50;;;;;;;9.38;2.28;;;17.70;99.90;;;;;;5088497;28;20032;-73
2023/08/31 12:41:17;;;;;;;8.13;2.60;;;18.20;99.90;;;;;;5089760;28;20036;-72
2023/08/31 12:43:43;;;;;;;6.05;2.42;;;18.40;99.90;;;;;;5088140;28;20539;-73